<?xml version="1.0" encoding="UTF-8" standalone="no" ?>
<gpx xmlns="http://www.topografix.com/GPX/1/1" xmlns:xsi="http://www.w3.org/2001/XMLSchema-instance" xsi:schemaLocation="http://www.topografix.com/GPX/1/1 http://www.topografix.com/GPX/1/1/gpx.xsd" version="1.1" creator="VisuGPX - https://www.visugpx.com">
  <metadata>
    <name>15578318-45min - moulin de kerdréan</name>
  </metadata>
  <trk>
    <name><![CDATA[15578318-45min - moulin de kerdréan]]></name>
    <trkseg>
      <trkpt lat="47.60342" lon="-2.48218">
        <ele>17</ele>
        <time>2022-09-22T20:16:37Z</time>
      </trkpt>
      <trkpt lat="47.60341" lon="-2.48222">
        <ele>17</ele>
        <time>2022-09-22T20:16:41Z</time>
      </trkpt>
      <trkpt lat="47.60349" lon="-2.48223">
        <ele>18</ele>
        <time>2022-09-22T20:16:52Z</time>
      </trkpt>
      <trkpt lat="47.60434" lon="-2.48184">
        <ele>21</ele>
        <time>2022-09-22T20:18:50Z</time>
      </trkpt>
      <trkpt lat="47.60449" lon="-2.48203">
        <ele>23</ele>
        <time>2022-09-22T20:19:17Z</time>
      </trkpt>
      <trkpt lat="47.60459" lon="-2.48202">
        <ele>23</ele>
        <time>2022-09-22T20:19:30Z</time>
      </trkpt>
      <trkpt lat="47.60474" lon="-2.48195">
        <ele>25</ele>
        <time>2022-09-22T20:19:51Z</time>
      </trkpt>
      <trkpt lat="47.60522" lon="-2.48162">
        <ele>30</ele>
        <time>2022-09-22T20:21:02Z</time>
      </trkpt>
      <trkpt lat="47.60538" lon="-2.48162">
        <ele>32</ele>
        <time>2022-09-22T20:21:23Z</time>
      </trkpt>
      <trkpt lat="47.60552" lon="-2.48168">
        <ele>34</ele>
        <time>2022-09-22T20:21:42Z</time>
      </trkpt>
      <trkpt lat="47.60574" lon="-2.48188">
        <ele>35</ele>
        <time>2022-09-22T20:22:17Z</time>
      </trkpt>
      <trkpt lat="47.60587" lon="-2.48214">
        <ele>36</ele>
        <time>2022-09-22T20:22:46Z</time>
      </trkpt>
      <trkpt lat="47.6061" lon="-2.48238">
        <ele>37</ele>
        <time>2022-09-22T20:23:23Z</time>
      </trkpt>
      <trkpt lat="47.60621" lon="-2.48241">
        <ele>38</ele>
        <time>2022-09-22T20:23:38Z</time>
      </trkpt>
      <trkpt lat="47.60724" lon="-2.48176">
        <ele>46</ele>
        <time>2022-09-22T20:26:08Z</time>
      </trkpt>
      <trkpt lat="47.60777" lon="-2.48154">
        <ele>49</ele>
        <time>2022-09-22T20:27:21Z</time>
      </trkpt>
      <trkpt lat="47.60783" lon="-2.48154">
        <ele>49</ele>
        <time>2022-09-22T20:27:29Z</time>
      </trkpt>
      <trkpt lat="47.60783" lon="-2.48152">
        <ele>49</ele>
        <time>2022-09-22T20:27:31Z</time>
      </trkpt>
      <trkpt lat="47.60778" lon="-2.48108">
        <ele>47</ele>
        <time>2022-09-22T20:28:11Z</time>
      </trkpt>
      <trkpt lat="47.60767" lon="-2.4807">
        <ele>46</ele>
        <time>2022-09-22T20:28:48Z</time>
      </trkpt>
      <trkpt lat="47.60761" lon="-2.48063">
        <ele>46</ele>
        <time>2022-09-22T20:28:59Z</time>
      </trkpt>
      <trkpt lat="47.60746" lon="-2.48059">
        <ele>46</ele>
        <time>2022-09-22T20:29:19Z</time>
      </trkpt>
      <trkpt lat="47.60734" lon="-2.48053">
        <ele>45</ele>
        <time>2022-09-22T20:29:36Z</time>
      </trkpt>
      <trkpt lat="47.60727" lon="-2.48042">
        <ele>44</ele>
        <time>2022-09-22T20:29:49Z</time>
      </trkpt>
      <trkpt lat="47.60708" lon="-2.47956">
        <ele>38</ele>
        <time>2022-09-22T20:31:11Z</time>
      </trkpt>
      <trkpt lat="47.60706" lon="-2.47939">
        <ele>37</ele>
        <time>2022-09-22T20:31:26Z</time>
      </trkpt>
      <trkpt lat="47.60706" lon="-2.4793">
        <ele>36</ele>
        <time>2022-09-22T20:31:34Z</time>
      </trkpt>
      <trkpt lat="47.60715" lon="-2.47903">
        <ele>34</ele>
        <time>2022-09-22T20:32:02Z</time>
      </trkpt>
      <trkpt lat="47.60727" lon="-2.47872">
        <ele>31</ele>
        <time>2022-09-22T20:32:34Z</time>
      </trkpt>
      <trkpt lat="47.60739" lon="-2.47833">
        <ele>27</ele>
        <time>2022-09-22T20:33:12Z</time>
      </trkpt>
      <trkpt lat="47.60751" lon="-2.47809">
        <ele>26</ele>
        <time>2022-09-22T20:33:39Z</time>
      </trkpt>
      <trkpt lat="47.60776" lon="-2.47775">
        <ele>25</ele>
        <time>2022-09-22T20:34:24Z</time>
      </trkpt>
      <trkpt lat="47.60794" lon="-2.47759">
        <ele>24</ele>
        <time>2022-09-22T20:34:52Z</time>
      </trkpt>
      <trkpt lat="47.60827" lon="-2.47764">
        <ele>26</ele>
        <time>2022-09-22T20:35:37Z</time>
      </trkpt>
      <trkpt lat="47.6084" lon="-2.47754">
        <ele>27</ele>
        <time>2022-09-22T20:35:56Z</time>
      </trkpt>
      <trkpt lat="47.60858" lon="-2.47729">
        <ele>28</ele>
        <time>2022-09-22T20:36:29Z</time>
      </trkpt>
      <trkpt lat="47.60895" lon="-2.47683">
        <ele>31</ele>
        <time>2022-09-22T20:37:34Z</time>
      </trkpt>
      <trkpt lat="47.60918" lon="-2.47639">
        <ele>30</ele>
        <time>2022-09-22T20:38:24Z</time>
      </trkpt>
      <trkpt lat="47.60932" lon="-2.4762">
        <ele>31</ele>
        <time>2022-09-22T20:38:49Z</time>
      </trkpt>
      <trkpt lat="47.60951" lon="-2.47566">
        <ele>30</ele>
        <time>2022-09-22T20:39:44Z</time>
      </trkpt>
      <trkpt lat="47.60967" lon="-2.47545">
        <ele>32</ele>
        <time>2022-09-22T20:40:12Z</time>
      </trkpt>
      <trkpt lat="47.60977" lon="-2.47526">
        <ele>31</ele>
        <time>2022-09-22T20:40:34Z</time>
      </trkpt>
      <trkpt lat="47.61004" lon="-2.475">
        <ele>31</ele>
        <time>2022-09-22T20:41:17Z</time>
      </trkpt>
      <trkpt lat="47.60999" lon="-2.4749">
        <ele>29</ele>
        <time>2022-09-22T20:41:28Z</time>
      </trkpt>
      <trkpt lat="47.60996" lon="-2.47473">
        <ele>29</ele>
        <time>2022-09-22T20:41:44Z</time>
      </trkpt>
      <trkpt lat="47.60979" lon="-2.47455">
        <ele>28</ele>
        <time>2022-09-22T20:42:12Z</time>
      </trkpt>
      <trkpt lat="47.60957" lon="-2.47455">
        <ele>28</ele>
        <time>2022-09-22T20:42:41Z</time>
      </trkpt>
      <trkpt lat="47.609" lon="-2.47491">
        <ele>25</ele>
        <time>2022-09-22T20:44:04Z</time>
      </trkpt>
      <trkpt lat="47.60886" lon="-2.47506">
        <ele>24</ele>
        <time>2022-09-22T20:44:27Z</time>
      </trkpt>
      <trkpt lat="47.6085" lon="-2.47527">
        <ele>23</ele>
        <time>2022-09-22T20:45:19Z</time>
      </trkpt>
      <trkpt lat="47.60815" lon="-2.47523">
        <ele>26</ele>
        <time>2022-09-22T20:46:05Z</time>
      </trkpt>
      <trkpt lat="47.60781" lon="-2.47488">
        <ele>31</ele>
        <time>2022-09-22T20:47:01Z</time>
      </trkpt>
      <trkpt lat="47.60751" lon="-2.47495">
        <ele>33</ele>
        <time>2022-09-22T20:47:41Z</time>
      </trkpt>
      <trkpt lat="47.60743" lon="-2.47525">
        <ele>34</ele>
        <time>2022-09-22T20:48:10Z</time>
      </trkpt>
      <trkpt lat="47.60723" lon="-2.47557">
        <ele>35</ele>
        <time>2022-09-22T20:48:49Z</time>
      </trkpt>
      <trkpt lat="47.60669" lon="-2.47562">
        <ele>42</ele>
        <time>2022-09-22T20:50:02Z</time>
      </trkpt>
      <trkpt lat="47.60584" lon="-2.47629">
        <ele>36</ele>
        <time>2022-09-22T20:52:10Z</time>
      </trkpt>
      <trkpt lat="47.60569" lon="-2.47671">
        <ele>30</ele>
        <time>2022-09-22T20:52:53Z</time>
      </trkpt>
      <trkpt lat="47.60541" lon="-2.47697">
        <ele>28</ele>
        <time>2022-09-22T20:53:37Z</time>
      </trkpt>
      <trkpt lat="47.60526" lon="-2.47716">
        <ele>27</ele>
        <time>2022-09-22T20:54:03Z</time>
      </trkpt>
      <trkpt lat="47.60457" lon="-2.4779">
        <ele>24</ele>
        <time>2022-09-22T20:55:57Z</time>
      </trkpt>
      <trkpt lat="47.60405" lon="-2.47819">
        <ele>25</ele>
        <time>2022-09-22T20:57:11Z</time>
      </trkpt>
      <trkpt lat="47.60334" lon="-2.47875">
        <ele>25</ele>
        <time>2022-09-22T20:58:58Z</time>
      </trkpt>
      <trkpt lat="47.6022" lon="-2.47991">
        <ele>21</ele>
        <time>2022-09-22T21:02:03Z</time>
      </trkpt>
      <trkpt lat="47.60189" lon="-2.47998">
        <ele>21</ele>
        <time>2022-09-22T21:02:45Z</time>
      </trkpt>
      <trkpt lat="47.60156" lon="-2.48034">
        <ele>21</ele>
        <time>2022-09-22T21:03:39Z</time>
      </trkpt>
      <trkpt lat="47.6021" lon="-2.4809">
        <ele>16</ele>
        <time>2022-09-22T21:05:07Z</time>
      </trkpt>
      <trkpt lat="47.6028" lon="-2.48172">
        <ele>16</ele>
        <time>2022-09-22T21:07:06Z</time>
      </trkpt>
      <trkpt lat="47.60311" lon="-2.48206">
        <ele>16</ele>
        <time>2022-09-22T21:07:58Z</time>
      </trkpt>
      <trkpt lat="47.60329" lon="-2.48224">
        <ele>17</ele>
        <time>2022-09-22T21:08:27Z</time>
      </trkpt>
      <trkpt lat="47.60337" lon="-2.48232">
        <ele>17</ele>
        <time>2022-09-22T21:08:40Z</time>
      </trkpt>
      <trkpt lat="47.60341" lon="-2.48222">
        <ele>17</ele>
        <time>2022-09-22T21:08:50Z</time>
      </trkpt>
      <trkpt lat="47.60349" lon="-2.48223">
        <ele>18</ele>
        <time>2022-09-22T21:09:01Z</time>
      </trkpt>
      <trkpt lat="47.60401" lon="-2.48199">
        <ele>19</ele>
        <time>2022-09-22T21:10:13Z</time>
      </trkpt>
    </trkseg>
  </trk>
</gpx>